Time;durP1;ratioP1;P1;durP2;ratioP2;P2;SDS_P1;SDS_P2;PMS_P1;PMS_P2;Temp;Humidity;BMP_temperature;BMP_pressure;BME280_temperature;BME280_humidity;BME280_pressure;Samples;Min_cycle;Max_cycle;Signal;HPM_P1;HPM_P2
2022/04/15 00:00:28;;;;;;;22.25;12.35;;;332.90;1868.80;;;;;;5036693;28;20101;-79
2022/04/15 00:02:55;;;;;;;27.25;11.98;;;308.10;1843.20;;;;;;5036505;28;20120;-80
2022/04/15 00:05:34;;;;;;;21.67;12.38;;;307.90;1868.80;;;;;;5054282;28;20479;-80
2022/04/15 00:08:00;;;;;;;20.50;13.73;;;307.80;1894.40;;;;;;5054220;28;20025;-79
2022/04/15 00:10:28;;;;;;;25.92;13.40;;;307.70;1971.20;;;;;;5036290;28;20032;-79
2022/04/15 00:12:57;;;;;;;21.65;12.07;;;307.60;1996.80;;;;;;5036639;28;20027;-82
2022/04/15 00:15:23;;;;;;;26.23;13.20;;;307.50;2073.60;;;;;;5054097;28;20021;-80
2022/04/15 00:17:50;;;;;;;22.02;12.38;;;307.30;2124.80;;;;;;5054079;28;20464;-80
2022/04/15 00:20:15;;;;;;;20.77;11.70;;;307.20;2124.80;;;;;;5054214;28;20028;-80
2022/04/15 00:22:41;;;;;;;19.60;11.85;;;307.30;2099.20;;;;;;5035933;28;20037;-80
2022/04/15 00:25:10;;;;;;;25.13;13.25;;;307.20;2099.20;;;;;;5053895;28;20025;-81
2022/04/15 00:27:37;;;;;;;20.13;12.65;;;307.20;2124.80;;;;;;5035880;28;20025;-79
2022/04/15 00:30:05;;;;;;;22.35;12.75;;;307.30;2099.20;;;;;;5036237;28;20243;-79
2022/04/15 00:32:30;;;;;;;23.33;12.27;;;307.30;2099.20;;;;;;5035750;28;20033;-79
2022/04/15 00:34:56;;;;;;;25.25;12.25;;;307.20;2073.60;;;;;;5053668;28;20393;-79
2022/04/15 00:37:23;;;;;;;19.38;12.25;;;307.20;2099.20;;;;;;5035599;28;20052;-79
2022/04/15 00:39:49;;;;;;;28.13;11.95;;;307.40;2073.60;;;;;;5035950;28;20024;-79
2022/04/15 00:42:15;;;;;;;22.20;11.70;;;307.30;2073.60;;;;;;5053724;28;20028;-79
2022/04/15 00:44:40;;;;;;;20.67;11.07;;;307.40;2048.00;;;;;;5035114;28;20397;-79
2022/04/15 00:47:14;;;;;;;;;;;307.50;2048.00;;;;;;5035954;28;20162;-79
2022/04/15 00:49:40;;;;;;;20.73;11.65;;;307.30;2073.60;;;;;;5033414;28;19916;-79
2022/04/15 00:52:08;;;;;;;21.67;11.35;;;307.30;2073.60;;;;;;5035259;28;20485;-78
2022/04/15 00:54:34;;;;;;;20.77;12.57;;;307.30;2099.20;;;;;;5034298;28;20028;-80
2022/04/15 00:57:01;;;;;;;24.40;12.25;;;307.40;2073.60;;;;;;5052949;28;20071;-80
2022/04/15 00:59:29;;;;;;;21.27;10.80;;;307.60;2048.00;;;;;;5029144;28;20028;-80
2022/04/15 01:01:55;;;;;;;23.17;11.77;;;307.50;2048.00;;;;;;5034175;28;20067;-79
2022/04/15 01:04:22;;;;;;;22.10;12.00;;;307.20;2099.20;;;;;;5045829;28;20029;-79
2022/04/15 01:06:50;;;;;;;21.73;12.63;;;307.30;2124.80;;;;;;5048776;28;20067;-80
2022/04/15 01:09:20;;;;;;;21.10;12.20;;;307.40;2048.00;;;;;;5031166;28;20473;-79
2022/04/15 01:11:49;;;;;;;24.58;12.77;;;307.30;2073.60;;;;;;5051593;28;20044;-79
2022/04/15 01:14:16;;;;;;;19.55;11.82;;;307.30;2073.60;;;;;;5034672;28;20543;-79
2022/04/15 01:16:42;;;;;;;19.50;12.48;;;307.20;2073.60;;;;;;5034696;28;20115;-79
2022/04/15 01:19:07;;;;;;;21.85;11.93;;;282.40;2099.20;;;;;;5052612;28;20109;-79
2022/04/15 01:21:37;;;;;;;20.17;12.85;;;282.20;2124.80;;;;;;5052328;28;20044;-80
2022/04/15 01:24:03;;;;;;;19.80;12.25;;;282.00;2176.00;;;;;;5032133;28;20086;-80
2022/04/15 01:26:28;;;;;;;17.85;12.43;;;282.00;2227.20;;;;;;5052059;28;20488;-80
2022/04/15 01:28:55;;;;;;;22.35;12.75;;;281.90;2252.80;;;;;;5033752;28;20037;-79
2022/04/15 01:31:20;;;;;;;19.60;11.38;;;281.90;2252.80;;;;;;5034724;28;20062;-81
2022/04/15 01:33:46;;;;;;;23.52;13.15;;;281.80;2227.20;;;;;;5034734;28;20059;-79
2022/04/15 01:36:13;;;;;;;;;;;281.60;2278.40;;;;;;5034958;28;20029;-80
2022/04/15 01:38:39;;;;;;;23.52;12.63;;;256.90;2252.80;;;;;;5034044;28;20319;-78
2022/04/15 01:41:04;;;;;;;25.00;12.43;;;256.90;2252.80;;;;;;5033049;28;20411;-80
2022/04/15 01:43:30;;;;;;;22.65;13.07;;;256.90;2252.80;;;;;;5034215;28;20029;-79
2022/04/15 01:45:56;;;;;;;25.27;14.07;;;256.80;2252.80;;;;;;5034532;28;20032;-80
2022/04/15 01:48:21;;;;;;;;;;;256.70;2252.80;;;;;;5033701;28;20438;-80
2022/04/15 01:50:47;;;;;;;24.95;13.90;;;256.70;2252.80;;;;;;5034098;28;19916;-80
2022/04/15 01:53:13;;;;;;;;;;;256.60;2252.80;;;;;;5034760;28;20052;-79
2022/04/15 01:55:38;;;;;;;20.55;13.27;;;256.70;2252.80;;;;;;5033846;28;20375;-80
2022/04/15 01:58:04;;;;;;;;;;;256.60;2252.80;;;;;;5034578;28;20027;-80
2022/04/15 02:00:30;;;;;;;24.75;13.70;;;256.60;2252.80;;;;;;5034256;28;19905;-80
2022/04/15 02:02:55;;;;;;;;;;;256.70;2252.80;;;;;;5034759;28;20036;-79
2022/04/15 02:05:21;;;;;;;20.65;12.95;;;256.70;2252.80;;;;;;5034224;28;19999;-81
2022/04/15 02:07:47;;;;;;;;;;;256.50;2252.80;;;;;;5034262;28;20435;-80
2022/04/15 02:10:12;;;;;;;31.60;15.13;;;256.50;2252.80;;;;;;5033841;28;19919;-80
2022/04/15 02:12:38;;;;;;;;;;;256.40;2252.80;;;;;;5051755;28;20082;-81
2022/04/15 02:15:04;;;;;;;27.30;15.80;;;256.30;2252.80;;;;;;5034127;28;19959;-80
2022/04/15 02:17:30;;;;;;;31.52;16.95;;;256.10;2252.80;;;;;;5034247;28;20025;-80
2022/04/15 02:19:56;;;;;;;31.92;14.82;;;256.30;2252.80;;;;;;5036856;28;20086;-78
2022/04/15 02:22:21;;;;;;;;;;;256.60;2252.80;;;;;;5038692;28;20029;-81
2022/04/15 02:24:47;;;;;;;26.33;15.90;;;256.50;2252.80;;;;;;5037850;28;19908;-80
2022/04/15 02:27:13;;;;;;;;;;;256.50;2252.80;;;;;;5037976;28;20029;-80
2022/04/15 02:29:39;;;;;;;35.13;18.73;;;256.40;2252.80;;;;;;5037723;28;19920;-81
2022/04/15 02:32:05;;;;;;;;;;;256.40;2252.80;;;;;;5056060;28;20045;-81
2022/04/15 02:34:31;;;;;;;24.17;15.63;;;256.30;2252.80;;;;;;5038011;28;20344;-81
2022/04/15 02:36:56;;;;;;;;;;;256.30;2252.80;;;;;;5038163;28;20035;-80
2022/04/15 02:39:22;;;;;;;37.75;18.08;;;256.50;2252.80;;;;;;5060222;28;19909;-81
2022/04/15 02:41:51;;;;;;;;;;;256.40;2252.80;;;;;;5038116;28;20025;-80
2022/04/15 02:44:17;;;;;;;31.52;16.02;;;256.30;2252.80;;;;;;5037504;28;19909;-82
2022/04/15 02:46:43;;;;;;;28.70;15.98;;;256.00;2252.80;;;;;;5035000;28;20048;-81
2022/04/15 02:49:11;;;;;;;34.90;19.23;;;231.20;2252.80;;;;;;5037505;28;20052;-79
2022/04/15 02:51:37;;;;;;;31.70;18.77;;;231.10;2252.80;;;;;;5037481;28;20033;-81
2022/04/15 02:54:02;;;;;;;30.98;18.02;;;231.00;2252.80;;;;;;5037392;28;20104;-81
2022/04/15 02:56:28;;;;;;;26.40;17.15;;;231.00;2252.80;;;;;;5036743;28;20472;-80
2022/04/15 02:58:54;;;;;;;;;;;231.10;2252.80;;;;;;5036997;28;20055;-78
2022/04/15 03:01:19;;;;;;;32.38;17.00;;;231.20;2252.80;;;;;;5055144;28;19904;-81
2022/04/15 03:03:45;;;;;;;27.42;17.08;;;231.30;2252.80;;;;;;5054955;28;20056;-79
2022/04/15 03:06:11;;;;;;;;;;;231.30;2252.80;;;;;;5037751;28;20043;-81
2022/04/15 03:08:36;;;;;;;31.45;16.92;;;231.20;2252.80;;;;;;5054809;28;19905;-79
2022/04/15 03:11:02;;;;;;;;;;;231.00;2252.80;;;;;;5037176;28;20029;-80
2022/04/15 03:13:28;;;;;;;34.42;16.58;;;230.80;2252.80;;;;;;5055007;28;19955;-80
2022/04/15 03:15:53;;;;;;;30.52;16.35;;;230.80;2252.80;;;;;;5036897;28;20033;-80
2022/04/15 03:18:19;;;;;;;;;;;231.00;2252.80;;;;;;5037670;28;20029;-79
2022/04/15 03:20:45;;;;;;;30.20;16.48;;;231.00;2252.80;;;;;;5036884;28;20012;-81
2022/04/15 03:23:11;;;;;;;38.08;17.27;;;231.00;2252.80;;;;;;5036689;28;20033;-80
2022/04/15 03:25:37;;;;;;;27.80;17.42;;;231.10;2252.80;;;;;;5036282;28;20025;-79
2022/04/15 03:28:02;;;;;;;;;;;231.10;2252.80;;;;;;5037218;28;20017;-80
2022/04/15 03:30:28;;;;;;;31.48;18.33;;;231.20;2252.80;;;;;;5035174;28;20010;-79
2022/04/15 03:32:54;;;;;;;;;;;230.90;2252.80;;;;;;5054948;28;20487;-80
2022/04/15 03:35:21;;;;;;;35.63;17.17;;;231.00;2252.80;;;;;;5036505;28;19912;-81
2022/04/15 03:37:51;;;;;;;31.48;17.88;;;230.90;2252.80;;;;;;5033552;28;20227;-80
2022/04/15 03:40:18;;;;;;;45.65;20.55;;;231.00;2252.80;;;;;;5054332;28;20033;-80
2022/04/15 03:42:48;;;;;;;49.17;19.85;;;230.90;2252.80;;;;;;5036590;28;20028;-80
2022/04/15 03:45:18;;;;;;;40.83;20.90;;;230.70;2252.80;;;;;;5036748;28;20477;-78
2022/04/15 03:47:44;;;;;;;35.85;19.85;;;230.60;2252.80;;;;;;5036045;28;20032;-77
2022/04/15 03:50:11;;;;;;;37.85;19.65;;;230.40;2252.80;;;;;;5054368;28;20025;-78
2022/04/15 03:52:46;;;;;;;47.58;19.77;;;230.50;2252.80;;;;;;5054213;28;20072;-78
2022/04/15 03:55:13;;;;;;;38.45;21.17;;;230.50;2252.80;;;;;;5034252;28;20055;-78
2022/04/15 03:57:39;;;;;;;47.20;21.75;;;230.40;2252.80;;;;;;5054379;28;20027;-78
2022/04/15 04:00:07;;;;;;;40.05;20.67;;;230.40;2252.80;;;;;;5054241;28;20013;-78
2022/04/15 04:02:33;;;;;;;36.78;20.85;;;230.60;2252.80;;;;;;5054137;28;20025;-77
2022/04/15 04:04:59;;;;;;;49.42;23.27;;;230.50;2252.80;;;;;;5035946;28;20106;-77
2022/04/15 04:07:25;;;;;;;39.17;21.10;;;230.50;2252.80;;;;;;5036043;28;20473;-79
2022/04/15 04:09:50;;;;;;;;;;;205.70;2252.80;;;;;;5053791;28;20021;-78
2022/04/15 04:12:16;;;;;;;44.85;20.00;;;205.60;2252.80;;;;;;5036550;28;19999;-78
2022/04/15 04:14:41;;;;;;;;;;;205.40;2252.80;;;;;;5054505;28;20469;-79
2022/04/15 04:17:07;;;;;;;45.45;21.42;;;205.30;2252.80;;;;;;5053967;28;19984;-78
2022/04/15 04:19:33;;;;;;;;;;;205.30;2252.80;;;;;;5054098;28;20025;-78
2022/04/15 04:21:58;;;;;;;37.45;19.75;;;205.30;2252.80;;;;;;5035931;28;19919;-79
2022/04/15 04:24:24;;;;;;;;;;;205.20;2252.80;;;;;;5054286;28;20508;-77
2022/04/15 04:26:49;;;;;;;39.60;19.77;;;205.20;2252.80;;;;;;5053629;28;19912;-79
2022/04/15 04:29:16;;;;;;;;;;;205.10;2252.80;;;;;;5036555;28;20029;-83
2022/04/15 04:31:42;;;;;;;45.22;20.17;;;205.20;2252.80;;;;;;5053754;28;19912;-83
2022/04/15 04:34:08;;;;;;;;;;;205.20;2252.80;;;;;;5032244;28;20058;-78
2022/04/15 04:36:33;;;;;;;34.25;19.50;;;205.10;2252.80;;;;;;5035212;28;19951;-79
2022/04/15 04:38:59;;;;;;;;;;;205.10;2252.80;;;;;;5035717;28;20021;-78
2022/04/15 04:41:25;;;;;;;36.75;18.73;;;205.10;2252.80;;;;;;5034754;28;20279;-78
2022/04/15 04:43:51;;;;;;;;;;;205.00;2252.80;;;;;;5035816;28;20052;-78
2022/04/15 04:46:17;;;;;;;37.38;18.85;;;205.10;2252.80;;;;;;5035551;28;19928;-78
2022/04/15 04:48:42;;;;;;;45.72;20.55;;;205.30;2252.80;;;;;;5053071;28;20029;-78
2022/04/15 04:51:08;;;;;;;;;;;205.30;2252.80;;;;;;5035611;28;20119;-77
2022/04/15 04:53:34;;;;;;;36.80;19.50;;;205.20;2252.80;;;;;;5035022;28;19971;-79
2022/04/15 04:55:59;;;;;;;;;;;205.30;2252.80;;;;;;5035694;28;20025;-79
2022/04/15 04:58:25;;;;;;;37.72;19.40;;;205.50;2252.80;;;;;;5035267;28;19944;-78
2022/04/15 05:00:51;;;;;;;;;;;205.50;2252.80;;;;;;5035760;28;20388;-78
2022/04/15 05:03:18;;;;;;;34.75;20.40;;;205.60;2252.80;;;;;;5052932;28;20311;-77
2022/04/15 05:05:43;;;;;;;;;;;205.60;2252.80;;;;;;5035052;28;20025;-78
2022/04/15 05:08:09;;;;;;;40.95;21.33;;;205.60;2252.80;;;;;;5034510;28;19905;-77
2022/04/15 05:10:34;;;;;;;;;;;205.70;2252.80;;;;;;5035346;28;20029;-81
2022/04/15 05:13:00;;;;;;;43.33;20.88;;;230.40;2252.80;;;;;;5034805;28;20407;-79
2022/04/15 05:15:26;;;;;;;;;;;230.50;2252.80;;;;;;5035268;28;20538;-77
2022/04/15 05:17:51;;;;;;;41.60;19.70;;;230.60;2252.80;;;;;;5052988;28;19905;-77
2022/04/15 05:20:17;;;;;;;;;;;230.60;2252.80;;;;;;5034804;28;20499;-79
2022/04/15 05:22:44;;;;;;;32.40;18.95;;;230.80;2252.80;;;;;;5034019;28;19909;-77
2022/04/15 05:25:10;;;;;;;34.10;17.92;;;230.90;2252.80;;;;;;5034469;28;20428;-78
2022/04/15 05:27:36;;;;;;;33.65;19.10;;;231.10;2252.80;;;;;;5034664;28;20051;-80
2022/04/15 05:30:03;;;;;;;36.13;19.38;;;256.00;2252.80;;;;;;5034366;28;20397;-80
2022/04/15 05:32:29;;;;;;;44.65;21.20;;;256.20;2252.80;;;;;;5052351;28;20102;-79
2022/04/15 05:34:55;;;;;;;36.78;20.00;;;256.10;2252.80;;;;;;5051772;28;20068;-83
2022/04/15 05:37:20;;;;;;;38.90;21.45;;;256.20;2252.80;;;;;;5052019;28;20522;-80
2022/04/15 05:39:46;;;;;;;;;;;256.30;2252.80;;;;;;5052322;28;20025;-77
2022/04/15 05:42:12;;;;;;;33.63;20.75;;;256.50;2252.80;;;;;;5052059;28;19912;-78
2022/04/15 05:44:39;;;;;;;;;;;256.70;2252.80;;;;;;5032319;28;20505;-78
2022/04/15 05:47:05;;;;;;;41.90;20.52;;;256.90;2252.80;;;;;;5051470;28;19909;-80
2022/04/15 05:49:34;;;;;;;34.40;20.05;;;256.90;2252.80;;;;;;5032784;28;20112;-80
2022/04/15 05:52:01;;;;;;;30.33;17.27;;;281.70;2278.40;;;;;;5034113;28;20559;-80
2022/04/15 05:54:27;;;;;;;45.17;21.33;;;282.10;2278.40;;;;;;5031076;28;20029;-79
2022/04/15 05:56:53;;;;;;;37.50;18.45;;;282.30;2278.40;;;;;;5052162;28;20029;-80
2022/04/15 05:59:22;;;;;;;35.25;16.63;;;307.20;2304.00;;;;;;5052565;28;20031;-79
2022/04/15 06:01:48;;;;;;;32.15;15.27;;;307.30;2304.00;;;;;;5034365;28;20108;-80
2022/04/15 06:04:15;;;;;;;29.98;16.83;;;307.40;2304.00;;;;;;5052375;28;20022;-79
2022/04/15 06:06:40;;;;;;;27.90;15.43;;;307.60;2304.00;;;;;;5052741;28;20071;-76
2022/04/15 06:09:06;;;;;;;29.52;15.52;;;307.80;2252.80;;;;;;5051656;28;20029;-78
2022/04/15 06:11:32;;;;;;;23.58;15.07;;;307.90;2201.60;;;;;;5034314;28;20029;-76
2022/04/15 06:14:01;;;;;;;26.40;15.05;;;308.10;2099.20;;;;;;5051199;28;20025;-76
2022/04/15 06:16:31;;;;;;;30.77;15.85;;;332.80;2176.00;;;;;;5031546;28;20041;-76
2022/04/15 06:19:00;;;;;;;24.10;15.88;;;333.00;2099.20;;;;;;5033656;28;20489;-77
2022/04/15 06:21:26;;;;;;;30.80;15.52;;;333.10;2124.80;;;;;;5051652;28;20067;-76
2022/04/15 06:23:53;;;;;;;26.98;14.20;;;333.30;2099.20;;;;;;5033817;28;20041;-76
2022/04/15 06:26:19;;;;;;;27.58;15.05;;;333.50;2022.40;;;;;;5050579;28;20021;-75
2022/04/15 06:28:45;;;;;;;29.83;14.73;;;333.70;1920.00;;;;;;5051184;28;20036;-76
2022/04/15 06:31:11;;;;;;;30.83;15.93;;;358.40;1817.60;;;;;;5050948;28;20033;-82
2022/04/15 06:33:37;;;;;;;24.95;14.55;;;358.50;1817.60;;;;;;5051305;28;20019;-75
2022/04/15 06:36:03;;;;;;;23.60;14.63;;;358.70;1792.00;;;;;;5032869;28;20575;-78
2022/04/15 06:38:29;;;;;;;26.75;15.23;;;358.80;1817.60;;;;;;5051664;28;20017;-77
2022/04/15 06:40:55;;;;;;;24.77;15.00;;;359.00;1817.60;;;;;;5051364;28;20024;-77
2022/04/15 06:43:21;;;;;;;37.55;14.70;;;359.10;1843.20;;;;;;5034020;28;20389;-76
2022/04/15 06:45:47;;;;;;;27.70;14.05;;;359.30;1792.00;;;;;;5033864;28;20028;-77
2022/04/15 06:48:12;;;;;;;24.92;14.15;;;384.00;1817.60;;;;;;5034021;28;20485;-75
2022/04/15 06:50:38;;;;;;;28.83;12.80;;;384.10;1766.40;;;;;;5032510;28;20111;-76
2022/04/15 06:53:04;;;;;;;19.33;12.05;;;384.30;1792.00;;;;;;5033601;28;20044;-77
2022/04/15 06:55:31;;;;;;;18.85;12.05;;;384.40;1766.40;;;;;;5051230;28;20041;-79
2022/04/15 06:57:57;;;;;;;24.52;12.80;;;384.60;1792.00;;;;;;5030397;28;20029;-77
2022/04/15 07:00:23;;;;;;;30.10;13.18;;;384.70;1715.20;;;;;;5033021;28;20037;-81
2022/04/15 07:02:49;;;;;;;19.95;12.38;;;384.90;1689.60;;;;;;5032910;28;20021;-77
2022/04/15 07:05:16;;;;;;;29.60;13.52;;;409.60;1715.20;;;;;;5053074;28;20025;-77
2022/04/15 07:07:42;;;;;;;18.50;11.82;;;409.80;1740.80;;;;;;5036510;28;20062;-76
2022/04/15 07:10:10;;;;;;;21.88;12.30;;;410.00;1715.20;;;;;;5037339;28;20128;-75
2022/04/15 07:12:37;;;;;;;22.60;11.98;;;410.00;1689.60;;;;;;5054722;28;20485;-76
2022/04/15 07:15:03;;;;;;;21.02;12.93;;;410.30;1689.60;;;;;;5055172;28;20036;-75
2022/04/15 07:17:29;;;;;;;28.42;12.20;;;410.50;1664.00;;;;;;5037021;28;20163;-75
2022/04/15 07:19:55;;;;;;;22.90;11.52;;;435.30;1689.60;;;;;;5054765;28;20104;-75
2022/04/15 07:22:22;;;;;;;22.40;10.25;;;435.50;1715.20;;;;;;5036930;28;20500;-79
2022/04/15 07:24:49;;;;;;;18.42;8.98;;;435.80;1638.40;;;;;;5036820;28;20120;-75
2022/04/15 07:27:15;;;;;;;19.58;9.70;;;435.80;1561.60;;;;;;5054714;28;20048;-76
2022/04/15 07:29:42;;;;;;;17.50;9.95;;;435.90;1587.20;;;;;;5054440;28;20435;-75
2022/04/15 07:32:08;;;;;;;21.70;9.10;;;436.10;1561.60;;;;;;5054800;28;20021;-76
2022/04/15 07:34:35;;;;;;;19.52;9.13;;;460.80;1510.40;;;;;;5054358;28;20036;-75
2022/04/15 07:37:03;;;;;;;19.13;8.05;;;460.90;1484.80;;;;;;5037102;28;20025;-75
2022/04/15 07:39:29;;;;;;;15.38;9.35;;;461.00;1484.80;;;;;;5036624;28;20096;-76
2022/04/15 07:41:55;;;;;;;18.48;8.73;;;460.80;1459.20;;;;;;5036384;28;20033;-81
2022/04/15 07:44:21;;;;;;;17.40;9.75;;;461.10;1408.00;;;;;;5036523;28;20125;-76
2022/04/15 07:46:48;;;;;;;19.35;11.32;;;461.40;1484.80;;;;;;5036452;28;20112;-76
2022/04/15 07:49:14;;;;;;;17.73;9.32;;;461.50;1484.80;;;;;;5054487;28;20025;-75
2022/04/15 07:51:40;;;;;;;19.52;9.82;;;461.50;1459.20;;;;;;5053791;28;20120;-75
2022/04/15 07:54:07;;;;;;;21.00;11.05;;;461.50;1433.60;;;;;;5036513;28;20116;-81
2022/04/15 07:56:34;;;;;;;26.27;12.63;;;461.60;1459.20;;;;;;5036042;28;20033;-79
2022/04/15 07:59:00;;;;;;;22.17;12.25;;;486.40;1484.80;;;;;;5054451;28;20053;-76
2022/04/15 08:01:29;;;;;;;23.65;10.77;;;486.40;1433.60;;;;;;5053918;28;20108;-77
2022/04/15 08:03:56;;;;;;;30.55;12.52;;;486.50;1459.20;;;;;;5053967;28;20017;-78
2022/04/15 08:06:23;;;;;;;17.95;12.55;;;486.60;1459.20;;;;;;5054210;28;20515;-76
2022/04/15 08:08:55;;;;;;;22.02;11.52;;;486.70;1433.60;;;;;;5053862;28;20097;-78
2022/04/15 08:11:25;;;;;;;20.95;10.18;;;486.60;1382.40;;;;;;5035950;28;20032;-75
2022/04/15 08:13:52;;;;;;;22.95;9.23;;;486.70;1356.80;;;;;;5053681;28;20104;-77
2022/04/15 08:16:18;;;;;;;21.52;10.13;;;486.80;1356.80;;;;;;5035276;28;20402;-77
2022/04/15 08:18:43;;;;;;;16.60;10.00;;;486.90;1382.40;;;;;;5053482;28;20100;-76
2022/04/15 08:21:09;;;;;;;21.58;13.27;;;486.80;1382.40;;;;;;5035836;28;20477;-76
2022/04/15 08:23:36;;;;;;;18.02;9.38;;;486.90;1382.40;;;;;;5053589;28;20051;-76
2022/04/15 08:26:02;;;;;;;13.43;7.07;;;487.00;1356.80;;;;;;5035193;28;20065;-76
2022/04/15 08:28:27;;;;;;;17.08;8.23;;;487.10;1280.00;;;;;;5053617;28;20021;-76
2022/04/15 08:30:53;;;;;;;17.95;7.05;;;487.20;1280.00;;;;;;5053418;28;20037;-77
2022/04/15 08:33:19;;;;;;;15.93;7.13;;;487.30;1280.00;;;;;;5053599;28;20032;-77
2022/04/15 08:35:44;;;;;;;12.82;7.90;;;487.30;1228.80;;;;;;5053465;28;20025;-77
2022/04/15 08:38:11;;;;;;;12.45;7.60;;;487.30;1280.00;;;;;;5035283;28;20564;-82
2022/04/15 08:40:42;;;;;;;15.13;8.40;;;487.30;1254.40;;;;;;5035363;28;20115;-79
2022/04/15 08:43:08;;;;;;;13.25;7.30;;;487.20;1254.40;;;;;;5053417;28;20495;-75
2022/04/15 08:45:39;;;;;;;16.33;7.80;;;487.20;1254.40;;;;;;5035332;28;20123;-77
2022/04/15 08:48:06;;;;;;;17.10;8.10;;;487.20;1254.40;;;;;;5035497;28;20017;-78
2022/04/15 08:50:32;;;;;;;11.80;7.15;;;487.20;1228.80;;;;;;5035565;28;20079;-81
2022/04/15 08:52:59;;;;;;;15.18;8.32;;;487.10;1228.80;;;;;;5052911;28;20053;-81
2022/04/15 08:55:27;;;;;;;17.67;9.07;;;487.10;1228.80;;;;;;5053420;28;20055;-78
2022/04/15 08:57:54;;;;;;;14.02;8.13;;;487.10;1254.40;;;;;;5035147;28;20025;-77
2022/04/15 09:00:20;;;;;;;15.18;8.45;;;487.10;1254.40;;;;;;5035382;28;20021;-78
2022/04/15 09:02:47;;;;;;;13.63;7.90;;;487.10;1254.40;;;;;;5052821;28;20021;-77
2022/04/15 09:05:17;;;;;;;19.73;7.63;;;487.10;1254.40;;;;;;5034594;28;20037;-80
2022/04/15 09:07:45;;;;;;;14.73;7.45;;;487.20;1254.40;;;;;;5035023;28;20017;-78
2022/04/15 09:10:11;;;;;;;13.73;8.07;;;487.30;1280.00;;;;;;5034227;28;20048;-77
2022/04/15 09:12:40;;;;;;;17.20;8.45;;;512.00;1305.60;;;;;;5052548;28;20013;-79
2022/04/15 09:15:06;;;;;;;17.40;8.80;;;512.10;1280.00;;;;;;5052271;28;20350;-78
2022/04/15 09:17:32;;;;;;;32.50;8.73;;;512.00;1305.60;;;;;;5052991;28;20028;-79
2022/04/15 09:20:00;;;;;;;17.48;7.90;;;512.10;1331.20;;;;;;5052164;28;20025;-77
2022/04/15 09:22:26;;;;;;;17.35;7.60;;;512.20;1305.60;;;;;;5034901;28;20044;-76
2022/04/15 09:24:51;;;;;;;16.75;9.15;;;512.20;1228.80;;;;;;5052487;28;20021;-77
2022/04/15 09:27:19;;;;;;;11.10;7.65;;;512.20;1228.80;;;;;;5034708;28;20033;-77
2022/04/15 09:29:46;;;;;;;17.45;7.75;;;512.20;1228.80;;;;;;5052424;28;20928;-79
2022/04/15 09:32:14;;;;;;;23.75;9.25;;;512.20;1203.20;;;;;;5034544;28;20048;-78
2022/04/15 09:35:00;;;;;;;15.77;7.45;;;512.30;1228.80;;;;;;5034695;28;20369;-78
2022/04/15 09:37:52;;;;;;;14.88;7.05;;;512.40;1203.20;;;;;;5034067;28;20029;-77
2022/04/15 09:40:25;;;;;;;13.55;6.72;;;512.50;1228.80;;;;;;5047673;28;20056;-81
2022/04/15 09:42:58;;;;;;;12.23;7.13;;;512.60;1228.80;;;;;;5051922;28;20104;-79
2022/04/15 09:45:25;;;;;;;13.75;6.85;;;512.60;1203.20;;;;;;5032033;28;20044;-78
2022/04/15 09:47:52;;;;;;;15.25;7.07;;;512.60;1228.80;;;;;;5051797;28;20036;-78
2022/04/15 09:50:53;;;;;;;14.75;6.97;;;512.70;1254.40;;;;;;5034355;28;20106;-77
2022/04/15 09:53:20;;;;;;;14.50;7.30;;;512.70;1177.60;;;;;;4935692;29;20106;-76
2022/04/15 09:55:48;;;;;;;13.52;6.30;;;512.70;1152.00;;;;;;4935957;29;20460;-77
2022/04/15 09:58:17;;;;;;;9.75;6.30;;;512.90;1126.40;;;;;;4952344;29;20468;-79
2022/04/15 10:00:53;;;;;;;13.18;5.85;;;537.70;1152.00;;;;;;4935202;29;20027;-77
2022/04/15 10:03:23;;;;;;;10.13;5.97;;;537.70;1177.60;;;;;;4935753;29;20043;-78
2022/04/15 10:05:51;;;;;;;14.48;6.40;;;537.70;1177.60;;;;;;4935904;29;20031;-78
2022/04/15 10:08:20;;;;;;;13.40;6.53;;;537.90;1177.60;;;;;;4952272;29;20035;-78
2022/04/15 10:10:47;;;;;;;14.95;6.25;;;538.10;1126.40;;;;;;4952128;29;20040;-78
2022/04/15 10:13:14;;;;;;;9.77;5.97;;;538.40;1075.20;;;;;;4935737;29;20024;-78
2022/04/15 10:15:40;;;;;;;16.08;7.03;;;563.50;1100.80;;;;;;4952358;29;20078;-78
2022/04/15 10:18:08;;;;;;;12.75;6.65;;;563.70;1075.20;;;;;;4951924;29;20102;-78
2022/04/15 10:20:34;;;;;;;11.43;6.28;;;564.10;1049.60;;;;;;4952338;29;20031;-78
2022/04/15 10:23:11;;;;;;;12.85;7.78;;;564.10;1049.60;;;;;;4951775;29;20420;-78
2022/04/15 10:25:38;;;;;;;10.90;5.13;;;564.00;1049.60;;;;;;4952167;29;20087;-78
2022/04/15 10:28:08;;;;;;;13.90;4.93;;;563.90;1024.00;;;;;;4952089;28;20039;-78
2022/04/15 10:30:33;;;;;;;10.68;5.20;;;563.80;1024.00;;;;;;5034086;28;20042;-78
2022/04/15 10:32:59;;;;;;;7.90;5.00;;;563.90;1024.00;;;;;;5034427;28;20025;-79
2022/04/15 10:35:33;;;;;;;13.25;5.20;;;563.90;1024.00;;;;;;5033489;28;20489;-79
2022/04/15 10:38:10;;;;;;;8.65;5.30;;;563.90;1024.00;;;;;;5033513;28;20036;-77
2022/04/15 10:40:36;;;;;;;11.52;7.05;;;564.00;1049.60;;;;;;5036374;28;20036;-77
2022/04/15 10:47:07;;;;;;;8.68;5.13;;;589.50;947.20;;;;;;5148003;23;20089;-78
2022/04/15 10:49:34;;;;;;;11.60;4.65;;;589.70;896.00;;;;;;5026716;23;20514;-79
2022/04/15 10:52:16;;;;;;;7.05;4.38;;;589.70;947.20;;;;;;5032641;28;20025;-78
2022/04/15 10:54:45;;;;;;;9.05;4.93;;;614.40;921.60;;;;;;5035521;28;20018;-77
2022/04/15 10:57:15;;;;;;;6.60;4.20;;;614.50;896.00;;;;;;5017737;28;20480;-79
2022/04/15 11:02:40;;;;;;;9.68;5.63;;;;;;;;;;5035698;28;20439;-77
2022/04/15 11:05:08;;;;;;;12.90;4.63;;;615.30;819.20;;;;;;5035345;28;20029;-78
2022/04/15 11:07:48;;;;;;;9.48;4.75;;;640.00;844.80;;;;;;5030046;28;20026;-76
2022/04/15 11:10:42;;;;;;;7.78;4.82;;;640.00;819.20;;;;;;5007115;28;20191;-77
2022/04/15 11:13:24;;;;;;;10.10;4.50;;;640.20;819.20;;;;;;5013849;28;20053;-79
2022/04/15 11:16:11;;;;;;;8.98;4.57;;;640.50;819.20;;;;;;5023801;28;20033;-78
2022/04/15 11:18:43;;;;;;;7.72;4.15;;;640.50;793.60;;;;;;5012548;28;20037;-78
2022/04/15 11:21:32;;;;;;;8.13;3.75;;;640.70;793.60;;;;;;5035368;28;20040;-78
2022/04/15 11:24:01;;;;;;;6.63;3.90;;;640.40;793.60;;;;;;5035114;28;20096;-80
2022/04/15 11:26:28;;;;;;;8.57;4.32;;;640.40;793.60;;;;;;5035260;28;20022;-80
2022/04/15 11:28:59;;;;;;;8.10;4.53;;;640.70;768.00;;;;;;5017200;28;20032;-78
2022/04/15 11:31:29;;;;;;;5.40;3.72;;;640.80;793.60;;;;;;5034685;28;20080;-78
2022/04/15 11:34:20;;;;;;;6.35;3.45;;;640.90;793.60;;;;;;5017293;28;20508;-79
2022/04/15 11:36:50;;;;;;;8.30;2.95;;;665.60;793.60;;;;;;5034979;28;20035;-80
2022/04/15 11:39:18;;;;;;;5.38;3.17;;;665.70;742.40;;;;;;5017023;28;20028;-78
2022/04/15 11:41:56;;;;;;;6.78;2.95;;;665.80;768.00;;;;;;5017200;28;20025;-78
2022/04/15 11:44:22;;;;;;;10.25;3.45;;;665.90;742.40;;;;;;5016830;28;20112;-78
2022/04/15 11:46:52;;;;;;;5.28;2.45;;;666.10;742.40;;;;;;5016719;28;20064;-77
2022/04/15 11:49:22;;;;;;;5.47;2.70;;;666.20;691.20;;;;;;5034307;28;20042;-79
2022/04/15 11:51:52;;;;;;;3.40;2.30;;;666.30;691.20;;;;;;5015348;28;20519;-79
2022/04/15 11:54:39;;;;;;;6.97;2.58;;;666.40;588.80;;;;;;5017029;28;20025;-82
2022/04/15 11:57:06;;;;;;;3.70;2.42;;;666.30;614.40;;;;;;5034692;28;20052;-79
2022/04/15 11:59:43;;;;;;;6.63;2.83;;;666.50;640.00;;;;;;5016574;28;20026;-79
2022/04/15 12:02:12;;;;;;;6.72;3.30;;;666.50;665.60;;;;;;5016828;28;20033;-79
2022/04/15 12:04:51;;;;;;;6.10;3.00;;;691.30;665.60;;;;;;5016643;28;20029;-80
2022/04/15 12:07:19;;;;;;;5.00;2.70;;;691.30;665.60;;;;;;5016125;28;20030;-78
2022/04/15 12:09:45;;;;;;;4.82;3.17;;;691.40;640.00;;;;;;5016530;28;20389;-79
2022/04/15 12:12:11;;;;;;;9.45;2.88;;;691.40;640.00;;;;;;5015862;28;20423;-79
2022/04/15 12:14:38;;;;;;;6.03;3.40;;;691.60;640.00;;;;;;5033962;28;20104;-79
2022/04/15 12:17:07;;;;;;;8.15;4.13;;;691.40;716.80;;;;;;5021845;28;20064;-78
2022/04/15 12:19:33;;;;;;;7.43;4.00;;;691.50;716.80;;;;;;5022794;28;20423;-79
2022/04/15 12:22:02;;;;;;;8.10;3.45;;;691.40;716.80;;;;;;5005859;28;20033;-78
2022/04/15 12:24:31;;;;;;;12.55;3.35;;;691.50;716.80;;;;;;5006492;28;20044;-78